sensor_id;sensor_type;location;lat;lon;timestamp;P1;durP1;ratioP1;P2;durP2;ratioP2
249;SDS011;109;19.806;-70.704;2022-07-06T00:02:17;22.33;;;4.53;;
249;SDS011;109;19.806;-70.704;2022-07-06T00:04:44;10.60;;;3.93;;
249;SDS011;109;19.806;-70.704;2022-07-06T00:07:10;15.40;;;3.87;;
249;SDS011;109;19.806;-70.704;2022-07-06T00:09:37;15.17;;;4.00;;
249;SDS011;109;19.806;-70.704;2022-07-06T00:12:03;16.87;;;4.60;;
249;SDS011;109;19.806;-70.704;2022-07-06T00:14:30;20.90;;;4.40;;
249;SDS011;109;19.806;-70.704;2022-07-06T00:16:56;27.13;;;4.80;;
249;SDS011;109;19.806;-70.704;2022-07-06T00:19:23;19.53;;;4.17;;
249;SDS011;109;19.806;-70.704;2022-07-06T00:21:49;18.67;;;4.30;;
249;SDS011;109;19.806;-70.704;2022-07-06T00:24:16;18.17;;;4.43;;
249;SDS011;109;19.806;-70.704;2022-07-06T00:26:44;22.03;;;4.40;;
249;SDS011;109;19.806;-70.704;2022-07-06T00:29:10;16.87;;;3.77;;
249;SDS011;109;19.806;-70.704;2022-07-06T00:31:37;24.27;;;4.33;;
249;SDS011;109;19.806;-70.704;2022-07-06T00:34:03;22.03;;;4.47;;
249;SDS011;109;19.806;-70.704;2022-07-06T00:36:36;22.13;;;4.57;;
249;SDS011;109;19.806;-70.704;2022-07-06T00:39:03;18.00;;;4.63;;
249;SDS011;109;19.806;-70.704;2022-07-06T00:41:36;14.97;;;5.20;;
249;SDS011;109;19.806;-70.704;2022-07-06T00:44:06;17.57;;;5.10;;
249;SDS011;109;19.806;-70.704;2022-07-06T00:46:41;23.60;;;5.20;;
249;SDS011;109;19.806;-70.704;2022-07-06T00:49:08;15.73;;;5.10;;
249;SDS011;109;19.806;-70.704;2022-07-06T00:52:00;18.40;;;5.50;;
249;SDS011;109;19.806;-70.704;2022-07-06T00:54:29;24.30;;;5.60;;
249;SDS011;109;19.806;-70.704;2022-07-06T00:57:04;23.07;;;6.63;;
249;SDS011;109;19.806;-70.704;2022-07-06T00:59:32;25.70;;;6.80;;
249;SDS011;109;19.806;-70.704;2022-07-06T01:02:05;19.27;;;5.90;;
249;SDS011;109;19.806;-70.704;2022-07-06T01:04:32;19.43;;;5.60;;
249;SDS011;109;19.806;-70.704;2022-07-06T01:07:04;23.40;;;6.80;;
249;SDS011;109;19.806;-70.704;2022-07-06T01:09:31;28.57;;;5.67;;
249;SDS011;109;19.806;-70.704;2022-07-06T01:12:06;33.13;;;6.83;;
249;SDS011;109;19.806;-70.704;2022-07-06T01:14:32;21.23;;;5.63;;
249;SDS011;109;19.806;-70.704;2022-07-06T01:17:07;16.53;;;5.87;;
249;SDS011;109;19.806;-70.704;2022-07-06T01:19:34;11.63;;;5.03;;
249;SDS011;109;19.806;-70.704;2022-07-06T01:22:06;36.80;;;7.30;;
249;SDS011;109;19.806;-70.704;2022-07-06T01:24:34;13.83;;;5.13;;
249;SDS011;109;19.806;-70.704;2022-07-06T01:27:09;22.47;;;6.00;;
249;SDS011;109;19.806;-70.704;2022-07-06T01:29:36;18.10;;;5.70;;
249;SDS011;109;19.806;-70.704;2022-07-06T01:32:16;19.33;;;5.70;;
249;SDS011;109;19.806;-70.704;2022-07-06T01:34:49;22.23;;;6.10;;
249;SDS011;109;19.806;-70.704;2022-07-06T01:37:16;15.23;;;6.50;;
249;SDS011;109;19.806;-70.704;2022-07-06T01:39:48;17.63;;;6.00;;
249;SDS011;109;19.806;-70.704;2022-07-06T01:42:15;15.23;;;5.97;;
249;SDS011;109;19.806;-70.704;2022-07-06T01:44:49;19.30;;;6.10;;
249;SDS011;109;19.806;-70.704;2022-07-06T01:47:16;17.07;;;5.30;;
249;SDS011;109;19.806;-70.704;2022-07-06T01:49:50;14.27;;;5.30;;
249;SDS011;109;19.806;-70.704;2022-07-06T01:52:17;16.97;;;5.20;;
249;SDS011;109;19.806;-70.704;2022-07-06T01:54:51;13.90;;;5.70;;
249;SDS011;109;19.806;-70.704;2022-07-06T01:57:19;18.67;;;5.07;;
249;SDS011;109;19.806;-70.704;2022-07-06T01:59:52;19.20;;;5.60;;
249;SDS011;109;19.806;-70.704;2022-07-06T02:02:19;22.40;;;4.90;;
249;SDS011;109;19.806;-70.704;2022-07-06T02:04:52;12.93;;;5.20;;
249;SDS011;109;19.806;-70.704;2022-07-06T02:07:19;15.70;;;5.00;;
249;SDS011;109;19.806;-70.704;2022-07-06T02:09:52;16.97;;;5.03;;
249;SDS011;109;19.806;-70.704;2022-07-06T02:12:24;13.90;;;4.60;;
249;SDS011;109;19.806;-70.704;2022-07-06T02:14:56;15.10;;;4.83;;
249;SDS011;109;19.806;-70.704;2022-07-06T02:17:46;21.17;;;5.50;;
249;SDS011;109;19.806;-70.704;2022-07-06T02:20:23;18.10;;;5.47;;
249;SDS011;109;19.806;-70.704;2022-07-06T02:23:04;21.47;;;4.90;;
249;SDS011;109;19.806;-70.704;2022-07-06T02:25:31;21.70;;;4.50;;
249;SDS011;109;19.806;-70.704;2022-07-06T02:28:11;19.13;;;4.33;;
249;SDS011;109;19.806;-70.704;2022-07-06T02:30:37;18.70;;;4.90;;
249;SDS011;109;19.806;-70.704;2022-07-06T02:33:24;18.23;;;4.43;;
249;SDS011;109;19.806;-70.704;2022-07-06T02:35:58;19.03;;;4.30;;
249;SDS011;109;19.806;-70.704;2022-07-06T02:38:37;13.73;;;4.57;;
249;SDS011;109;19.806;-70.704;2022-07-06T02:41:04;16.13;;;4.43;;
249;SDS011;109;19.806;-70.704;2022-07-06T02:43:45;17.43;;;4.30;;
249;SDS011;109;19.806;-70.704;2022-07-06T02:46:12;10.33;;;4.10;;
249;SDS011;109;19.806;-70.704;2022-07-06T02:48:52;8.00;;;4.03;;
249;SDS011;109;19.806;-70.704;2022-07-06T02:51:19;9.97;;;4.20;;
249;SDS011;109;19.806;-70.704;2022-07-06T02:53:59;13.17;;;4.07;;
249;SDS011;109;19.806;-70.704;2022-07-06T02:56:39;10.33;;;3.50;;
249;SDS011;109;19.806;-70.704;2022-07-06T02:59:07;7.30;;;3.60;;
249;SDS011;109;19.806;-70.704;2022-07-06T03:01:47;12.07;;;4.17;;
249;SDS011;109;19.806;-70.704;2022-07-06T03:04:14;12.70;;;4.10;;
249;SDS011;109;19.806;-70.704;2022-07-06T03:07:02;7.83;;;3.60;;
249;SDS011;109;19.806;-70.704;2022-07-06T03:09:35;14.37;;;4.10;;
249;SDS011;109;19.806;-70.704;2022-07-06T03:12:16;12.20;;;4.30;;
249;SDS011;109;19.806;-70.704;2022-07-06T03:14:42;11.33;;;3.57;;
249;SDS011;109;19.806;-70.704;2022-07-06T03:17:22;9.00;;;3.20;;
249;SDS011;109;19.806;-70.704;2022-07-06T03:19:51;13.10;;;4.30;;
249;SDS011;109;19.806;-70.704;2022-07-06T03:22:31;16.70;;;4.17;;
249;SDS011;109;19.806;-70.704;2022-07-06T03:24:59;12.40;;;3.63;;
249;SDS011;109;19.806;-70.704;2022-07-06T03:27:40;7.57;;;4.00;;
249;SDS011;109;19.806;-70.704;2022-07-06T03:30:07;12.60;;;4.00;;
249;SDS011;109;19.806;-70.704;2022-07-06T03:32:59;17.40;;;4.33;;
249;SDS011;109;19.806;-70.704;2022-07-06T03:35:33;10.10;;;4.10;;
249;SDS011;109;19.806;-70.704;2022-07-06T03:38:14;13.30;;;4.60;;
249;SDS011;109;19.806;-70.704;2022-07-06T03:40:41;13.80;;;4.90;;
249;SDS011;109;19.806;-70.704;2022-07-06T03:43:22;15.63;;;6.07;;
249;SDS011;109;19.806;-70.704;2022-07-06T03:45:48;7.47;;;3.80;;
249;SDS011;109;19.806;-70.704;2022-07-06T03:48:29;11.80;;;3.70;;
249;SDS011;109;19.806;-70.704;2022-07-06T03:50:55;14.63;;;4.27;;
249;SDS011;109;19.806;-70.704;2022-07-06T03:53:36;43.67;;;6.10;;
249;SDS011;109;19.806;-70.704;2022-07-06T03:56:10;26.83;;;5.33;;
249;SDS011;109;19.806;-70.704;2022-07-06T03:59:10;18.03;;;4.80;;
249;SDS011;109;19.806;-70.704;2022-07-06T04:01:49;11.17;;;4.10;;
249;SDS011;109;19.806;-70.704;2022-07-06T04:04:17;11.37;;;3.80;;
249;SDS011;109;19.806;-70.704;2022-07-06T04:06:56;15.77;;;3.73;;
249;SDS011;109;19.806;-70.704;2022-07-06T04:09:24;11.50;;;3.57;;
249;SDS011;109;19.806;-70.704;2022-07-06T04:12:04;5.20;;;3.40;;
249;SDS011;109;19.806;-70.704;2022-07-06T04:14:30;7.40;;;3.73;;
249;SDS011;109;19.806;-70.704;2022-07-06T04:17:11;11.23;;;3.40;;
249;SDS011;109;19.806;-70.704;2022-07-06T04:20:02;16.67;;;4.73;;
249;SDS011;109;19.806;-70.704;2022-07-06T04:22:43;20.93;;;4.57;;
249;SDS011;109;19.806;-70.704;2022-07-06T04:25:09;21.10;;;5.20;;
249;SDS011;109;19.806;-70.704;2022-07-06T04:27:48;27.00;;;4.27;;
249;SDS011;109;19.806;-70.704;2022-07-06T04:30:15;14.17;;;4.50;;
249;SDS011;109;19.806;-70.704;2022-07-06T04:33:03;11.33;;;4.60;;
249;SDS011;109;19.806;-70.704;2022-07-06T04:35:37;14.97;;;4.07;;
249;SDS011;109;19.806;-70.704;2022-07-06T04:38:21;12.60;;;4.40;;
249;SDS011;109;19.806;-70.704;2022-07-06T04:40:49;12.33;;;4.20;;
249;SDS011;109;19.806;-70.704;2022-07-06T04:43:30;13.77;;;4.80;;
249;SDS011;109;19.806;-70.704;2022-07-06T04:45:57;11.87;;;4.80;;
249;SDS011;109;19.806;-70.704;2022-07-06T04:48:49;9.70;;;4.77;;
249;SDS011;109;19.806;-70.704;2022-07-06T04:51:26;12.33;;;4.17;;
249;SDS011;109;19.806;-70.704;2022-07-06T04:54:07;19.10;;;5.30;;
249;SDS011;109;19.806;-70.704;2022-07-06T04:56:47;15.37;;;5.40;;
249;SDS011;109;19.806;-70.704;2022-07-06T04:59:14;15.40;;;5.13;;
249;SDS011;109;19.806;-70.704;2022-07-06T05:01:54;10.80;;;5.20;;
249;SDS011;109;19.806;-70.704;2022-07-06T05:04:21;13.30;;;4.33;;
249;SDS011;109;19.806;-70.704;2022-07-06T05:07:02;10.63;;;5.03;;
249;SDS011;109;19.806;-70.704;2022-07-06T05:09:29;10.53;;;4.83;;
249;SDS011;109;19.806;-70.704;2022-07-06T05:12:10;11.17;;;4.37;;
249;SDS011;109;19.806;-70.704;2022-07-06T05:14:36;19.20;;;5.20;;
249;SDS011;109;19.806;-70.704;2022-07-06T05:17:18;15.10;;;5.50;;
249;SDS011;109;19.806;-70.704;2022-07-06T05:19:45;12.20;;;4.53;;
249;SDS011;109;19.806;-70.704;2022-07-06T05:22:25;23.83;;;4.50;;
249;SDS011;109;19.806;-70.704;2022-07-06T05:24:53;15.93;;;3.30;;
249;SDS011;109;19.806;-70.704;2022-07-06T05:27:32;9.60;;;3.30;;
249;SDS011;109;19.806;-70.704;2022-07-06T05:29:59;6.50;;;2.83;;
249;SDS011;109;19.806;-70.704;2022-07-06T05:32:46;7.07;;;3.23;;
249;SDS011;109;19.806;-70.704;2022-07-06T05:35:20;7.30;;;2.90;;
249;SDS011;109;19.806;-70.704;2022-07-06T05:38:02;15.23;;;4.37;;
249;SDS011;109;19.806;-70.704;2022-07-06T05:40:37;10.50;;;3.60;;
249;SDS011;109;19.806;-70.704;2022-07-06T05:43:17;13.80;;;4.20;;
249;SDS011;109;19.806;-70.704;2022-07-06T05:45:44;14.43;;;4.13;;
249;SDS011;109;19.806;-70.704;2022-07-06T05:48:27;9.40;;;3.57;;
249;SDS011;109;19.806;-70.704;2022-07-06T05:51:18;13.20;;;4.43;;
249;SDS011;109;19.806;-70.704;2022-07-06T05:54:00;9.27;;;4.20;;
249;SDS011;109;19.806;-70.704;2022-07-06T05:56:40;14.70;;;4.50;;
249;SDS011;109;19.806;-70.704;2022-07-06T05:59:07;7.90;;;4.43;;
249;SDS011;109;19.806;-70.704;2022-07-06T06:01:46;12.50;;;5.00;;
249;SDS011;109;19.806;-70.704;2022-07-06T06:04:18;11.30;;;3.80;;
249;SDS011;109;19.806;-70.704;2022-07-06T06:06:58;17.73;;;4.80;;
249;SDS011;109;19.806;-70.704;2022-07-06T06:09:24;10.87;;;4.13;;
249;SDS011;109;19.806;-70.704;2022-07-06T06:12:05;12.70;;;4.50;;
249;SDS011;109;19.806;-70.704;2022-07-06T06:14:32;15.93;;;4.37;;
249;SDS011;109;19.806;-70.704;2022-07-06T06:17:12;15.87;;;4.43;;
249;SDS011;109;19.806;-70.704;2022-07-06T06:19:38;9.23;;;4.33;;
249;SDS011;109;19.806;-70.704;2022-07-06T06:22:18;9.07;;;4.37;;
249;SDS011;109;19.806;-70.704;2022-07-06T06:24:44;8.93;;;3.93;;
249;SDS011;109;19.806;-70.704;2022-07-06T06:27:23;10.57;;;4.10;;
249;SDS011;109;19.806;-70.704;2022-07-06T06:29:50;10.53;;;4.50;;
249;SDS011;109;19.806;-70.704;2022-07-06T06:32:36;15.40;;;4.33;;
249;SDS011;109;19.806;-70.704;2022-07-06T06:35:17;13.93;;;4.80;;
249;SDS011;109;19.806;-70.704;2022-07-06T06:37:56;16.30;;;4.70;;
249;SDS011;109;19.806;-70.704;2022-07-06T06:40:23;15.23;;;4.40;;
249;SDS011;109;19.806;-70.704;2022-07-06T06:43:04;11.00;;;4.77;;
249;SDS011;109;19.806;-70.704;2022-07-06T06:45:33;9.63;;;4.13;;
249;SDS011;109;19.806;-70.704;2022-07-06T06:48:13;14.67;;;5.20;;
249;SDS011;109;19.806;-70.704;2022-07-06T06:50:40;14.40;;;4.60;;
249;SDS011;109;19.806;-70.704;2022-07-06T06:53:20;12.70;;;4.77;;
249;SDS011;109;19.806;-70.704;2022-07-06T06:55:46;10.00;;;5.50;;
249;SDS011;109;19.806;-70.704;2022-07-06T06:58:26;13.43;;;4.90;;
249;SDS011;109;19.806;-70.704;2022-07-06T07:00:53;12.63;;;4.13;;
249;SDS011;109;19.806;-70.704;2022-07-06T07:03:33;12.37;;;4.97;;
249;SDS011;109;19.806;-70.704;2022-07-06T07:05:59;13.33;;;4.60;;
249;SDS011;109;19.806;-70.704;2022-07-06T07:08:38;10.80;;;4.33;;
249;SDS011;109;19.806;-70.704;2022-07-06T07:11:05;11.77;;;4.80;;
249;SDS011;109;19.806;-70.704;2022-07-06T07:13:45;9.20;;;4.60;;
249;SDS011;109;19.806;-70.704;2022-07-06T07:16:11;12.93;;;4.77;;
249;SDS011;109;19.806;-70.704;2022-07-06T07:18:51;8.00;;;4.73;;
249;SDS011;109;19.806;-70.704;2022-07-06T07:21:17;13.63;;;4.60;;
249;SDS011;109;19.806;-70.704;2022-07-06T07:23:58;14.90;;;5.00;;
249;SDS011;109;19.806;-70.704;2022-07-06T07:26:44;8.60;;;4.80;;
249;SDS011;109;19.806;-70.704;2022-07-06T07:29:17;16.60;;;5.00;;
249;SDS011;109;19.806;-70.704;2022-07-06T07:32:04;11.87;;;4.40;;
249;SDS011;109;19.806;-70.704;2022-07-06T07:34:45;12.40;;;4.50;;
249;SDS011;109;19.806;-70.704;2022-07-06T07:37:24;16.20;;;5.03;;
249;SDS011;109;19.806;-70.704;2022-07-06T07:39:51;14.07;;;5.00;;
249;SDS011;109;19.806;-70.704;2022-07-06T07:42:30;7.73;;;4.93;;
249;SDS011;109;19.806;-70.704;2022-07-06T07:44:57;14.23;;;4.70;;
249;SDS011;109;19.806;-70.704;2022-07-06T07:47:38;13.87;;;4.97;;
249;SDS011;109;19.806;-70.704;2022-07-06T07:50:05;11.57;;;4.43;;
249;SDS011;109;19.806;-70.704;2022-07-06T07:52:46;12.17;;;5.03;;
249;SDS011;109;19.806;-70.704;2022-07-06T07:55:13;10.00;;;4.87;;
249;SDS011;109;19.806;-70.704;2022-07-06T07:57:52;10.50;;;4.90;;
249;SDS011;109;19.806;-70.704;2022-07-06T08:00:19;14.13;;;6.43;;
249;SDS011;109;19.806;-70.704;2022-07-06T08:03:00;13.33;;;5.67;;
249;SDS011;109;19.806;-70.704;2022-07-06T08:05:27;13.87;;;4.93;;
249;SDS011;109;19.806;-70.704;2022-07-06T08:08:07;12.70;;;5.23;;
249;SDS011;109;19.806;-70.704;2022-07-06T08:10:33;13.87;;;4.87;;
249;SDS011;109;19.806;-70.704;2022-07-06T08:13:13;16.77;;;5.73;;
249;SDS011;109;19.806;-70.704;2022-07-06T08:15:40;12.63;;;5.10;;
249;SDS011;109;19.806;-70.704;2022-07-06T08:18:21;13.67;;;5.00;;
249;SDS011;109;19.806;-70.704;2022-07-06T08:20:47;11.20;;;4.47;;
249;SDS011;109;19.806;-70.704;2022-07-06T08:23:29;16.13;;;5.20;;
249;SDS011;109;19.806;-70.704;2022-07-06T08:26:02;12.47;;;4.60;;
249;SDS011;109;19.806;-70.704;2022-07-06T08:28:44;15.23;;;4.23;;
249;SDS011;109;19.806;-70.704;2022-07-06T08:31:10;17.10;;;5.67;;
249;SDS011;109;19.806;-70.704;2022-07-06T08:33:57;14.80;;;4.60;;
249;SDS011;109;19.806;-70.704;2022-07-06T08:36:32;16.43;;;5.07;;
249;SDS011;109;19.806;-70.704;2022-07-06T08:39:13;13.30;;;4.50;;
249;SDS011;109;19.806;-70.704;2022-07-06T08:41:52;19.90;;;4.83;;
249;SDS011;109;19.806;-70.704;2022-07-06T08:44:22;27.50;;;4.93;;
249;SDS011;109;19.806;-70.704;2022-07-06T08:47:04;17.70;;;5.10;;
249;SDS011;109;19.806;-70.704;2022-07-06T08:49:36;20.93;;;5.30;;
249;SDS011;109;19.806;-70.704;2022-07-06T08:52:16;12.27;;;5.10;;
249;SDS011;109;19.806;-70.704;2022-07-06T08:54:42;23.30;;;5.50;;
249;SDS011;109;19.806;-70.704;2022-07-06T08:57:21;25.97;;;5.40;;
249;SDS011;109;19.806;-70.704;2022-07-06T08:59:50;21.03;;;4.87;;
249;SDS011;109;19.806;-70.704;2022-07-06T09:02:30;15.00;;;5.30;;
249;SDS011;109;19.806;-70.704;2022-07-06T09:04:56;20.63;;;5.30;;
249;SDS011;109;19.806;-70.704;2022-07-06T09:07:37;13.87;;;5.03;;
249;SDS011;109;19.806;-70.704;2022-07-06T09:10:03;25.07;;;5.33;;
249;SDS011;109;19.806;-70.704;2022-07-06T09:13:04;26.20;;;5.90;;
249;SDS011;109;19.806;-70.704;2022-07-06T09:15:39;30.60;;;6.10;;
249;SDS011;109;19.806;-70.704;2022-07-06T09:18:20;15.53;;;5.00;;
249;SDS011;109;19.806;-70.704;2022-07-06T09:20:48;15.27;;;5.00;;
249;SDS011;109;19.806;-70.704;2022-07-06T09:23:28;14.93;;;4.97;;
249;SDS011;109;19.806;-70.704;2022-07-06T09:25:54;20.03;;;6.30;;
249;SDS011;109;19.806;-70.704;2022-07-06T09:28:43;15.63;;;5.10;;
249;SDS011;109;19.806;-70.704;2022-07-06T09:31:17;16.43;;;5.20;;
249;SDS011;109;19.806;-70.704;2022-07-06T09:34:05;13.97;;;4.60;;
249;SDS011;109;19.806;-70.704;2022-07-06T09:36:47;10.10;;;4.13;;
249;SDS011;109;19.806;-70.704;2022-07-06T09:39:19;13.43;;;4.67;;
249;SDS011;109;19.806;-70.704;2022-07-06T09:42:00;14.27;;;4.60;;
249;SDS011;109;19.806;-70.704;2022-07-06T09:47:11;12.27;;;4.60;;
249;SDS011;109;19.806;-70.704;2022-07-06T09:49:38;15.50;;;5.23;;
249;SDS011;109;19.806;-70.704;2022-07-06T09:52:22;14.53;;;4.80;;
249;SDS011;109;19.806;-70.704;2022-07-06T09:54:49;17.40;;;4.73;;
249;SDS011;109;19.806;-70.704;2022-07-06T09:57:29;12.47;;;4.90;;
249;SDS011;109;19.806;-70.704;2022-07-06T10:00:04;14.60;;;4.80;;
249;SDS011;109;19.806;-70.704;2022-07-06T10:02:46;24.47;;;5.27;;
249;SDS011;109;19.806;-70.704;2022-07-06T10:05:15;13.20;;;3.83;;
249;SDS011;109;19.806;-70.704;2022-07-06T10:08:02;20.20;;;4.63;;
249;SDS011;109;19.806;-70.704;2022-07-06T10:10:31;12.83;;;4.13;;
249;SDS011;109;19.806;-70.704;2022-07-06T10:13:12;16.03;;;4.30;;
249;SDS011;109;19.806;-70.704;2022-07-06T10:15:51;15.43;;;4.47;;
249;SDS011;109;19.806;-70.704;2022-07-06T10:18:33;19.23;;;4.77;;
249;SDS011;109;19.806;-70.704;2022-07-06T10:21:00;22.00;;;5.10;;
249;SDS011;109;19.806;-70.704;2022-07-06T10:23:40;15.03;;;4.70;;
249;SDS011;109;19.806;-70.704;2022-07-06T10:29:07;18.50;;;5.00;;
249;SDS011;109;19.806;-70.704;2022-07-06T10:31:47;15.87;;;5.23;;
249;SDS011;109;19.806;-70.704;2022-07-06T10:34:15;14.80;;;5.30;;
249;SDS011;109;19.806;-70.704;2022-07-06T10:36:56;18.53;;;7.10;;
249;SDS011;109;19.806;-70.704;2022-07-06T10:39:36;10.03;;;5.20;;
249;SDS011;109;19.806;-70.704;2022-07-06T10:45:19;17.00;;;6.20;;
249;SDS011;109;19.806;-70.704;2022-07-06T10:50:39;15.57;;;4.97;;
249;SDS011;109;19.806;-70.704;2022-07-06T10:53:36;14.87;;;5.50;;
249;SDS011;109;19.806;-70.704;2022-07-06T10:56:11;13.50;;;4.90;;
249;SDS011;109;19.806;-70.704;2022-07-06T10:59:24;12.13;;;4.53;;
249;SDS011;109;19.806;-70.704;2022-07-06T11:02:15;14.63;;;5.00;;
249;SDS011;109;19.806;-70.704;2022-07-06T11:04:50;16.73;;;4.97;;
249;SDS011;109;19.806;-70.704;2022-07-06T11:07:30;10.73;;;5.57;;
249;SDS011;109;19.806;-70.704;2022-07-06T11:09:59;13.87;;;4.60;;
249;SDS011;109;19.806;-70.704;2022-07-06T11:12:44;18.23;;;4.50;;
249;SDS011;109;19.806;-70.704;2022-07-06T11:15:11;15.00;;;4.33;;
249;SDS011;109;19.806;-70.704;2022-07-06T11:18:10;13.07;;;4.50;;
249;SDS011;109;19.806;-70.704;2022-07-06T11:21:12;22.43;;;5.27;;
249;SDS011;109;19.806;-70.704;2022-07-06T11:24:01;16.50;;;4.60;;
249;SDS011;109;19.806;-70.704;2022-07-06T11:26:28;13.03;;;4.73;;
249;SDS011;109;19.806;-70.704;2022-07-06T11:29:17;10.90;;;3.90;;
249;SDS011;109;19.806;-70.704;2022-07-06T11:31:58;12.47;;;4.03;;
249;SDS011;109;19.806;-70.704;2022-07-06T11:34:27;9.90;;;3.97;;
249;SDS011;109;19.806;-70.704;2022-07-06T11:37:10;12.17;;;3.50;;
249;SDS011;109;19.806;-70.704;2022-07-06T11:39:47;11.27;;;3.63;;
249;SDS011;109;19.806;-70.704;2022-07-06T11:42:26;8.60;;;3.50;;
249;SDS011;109;19.806;-70.704;2022-07-06T11:44:53;9.33;;;3.33;;
249;SDS011;109;19.806;-70.704;2022-07-06T11:47:32;14.03;;;3.97;;
249;SDS011;109;19.806;-70.704;2022-07-06T11:49:59;6.30;;;3.30;;
249;SDS011;109;19.806;-70.704;2022-07-06T11:52:39;8.53;;;3.40;;
249;SDS011;109;19.806;-70.704;2022-07-06T11:55:06;5.60;;;3.13;;
249;SDS011;109;19.806;-70.704;2022-07-06T11:57:46;9.63;;;3.43;;
249;SDS011;109;19.806;-70.704;2022-07-06T12:00:14;10.70;;;3.20;;
249;SDS011;109;19.806;-70.704;2022-07-06T12:03:01;13.73;;;3.80;;
249;SDS011;109;19.806;-70.704;2022-07-06T12:05:31;10.00;;;3.20;;
249;SDS011;109;19.806;-70.704;2022-07-06T12:08:12;13.43;;;3.63;;
249;SDS011;109;19.806;-70.704;2022-07-06T12:10:38;9.63;;;3.80;;
249;SDS011;109;19.806;-70.704;2022-07-06T12:13:18;12.17;;;3.70;;
249;SDS011;109;19.806;-70.704;2022-07-06T12:15:44;16.30;;;3.50;;
249;SDS011;109;19.806;-70.704;2022-07-06T12:18:35;7.80;;;3.63;;
249;SDS011;109;19.806;-70.704;2022-07-06T12:21:10;13.40;;;5.90;;
249;SDS011;109;19.806;-70.704;2022-07-06T12:23:54;10.70;;;3.60;;
249;SDS011;109;19.806;-70.704;2022-07-06T12:26:22;9.40;;;3.23;;
249;SDS011;109;19.806;-70.704;2022-07-06T12:29:11;13.70;;;4.23;;
249;SDS011;109;19.806;-70.704;2022-07-06T12:32:01;11.20;;;3.70;;
249;SDS011;109;19.806;-70.704;2022-07-06T12:34:35;11.37;;;4.03;;
249;SDS011;109;19.806;-70.704;2022-07-06T12:37:17;14.63;;;3.60;;
249;SDS011;109;19.806;-70.704;2022-07-06T12:39:45;11.93;;;3.10;;
249;SDS011;109;19.806;-70.704;2022-07-06T12:42:26;11.40;;;3.50;;
249;SDS011;109;19.806;-70.704;2022-07-06T12:44:53;11.23;;;3.07;;
249;SDS011;109;19.806;-70.704;2022-07-06T12:47:34;12.50;;;3.47;;
249;SDS011;109;19.806;-70.704;2022-07-06T12:50:06;11.90;;;3.83;;
249;SDS011;109;19.806;-70.704;2022-07-06T12:52:51;14.37;;;3.93;;
249;SDS011;109;19.806;-70.704;2022-07-06T12:55:17;9.70;;;4.30;;
249;SDS011;109;19.806;-70.704;2022-07-06T12:58:06;12.60;;;4.10;;
249;SDS011;109;19.806;-70.704;2022-07-06T13:00:51;20.53;;;4.53;;
249;SDS011;109;19.806;-70.704;2022-07-06T13:03:40;9.87;;;3.87;;
249;SDS011;109;19.806;-70.704;2022-07-06T13:06:14;10.30;;;3.80;;
249;SDS011;109;19.806;-70.704;2022-07-06T13:08:55;7.33;;;3.60;;
249;SDS011;109;19.806;-70.704;2022-07-06T13:11:35;14.23;;;4.90;;
249;SDS011;109;19.806;-70.704;2022-07-06T13:14:01;10.70;;;4.10;;
249;SDS011;109;19.806;-70.704;2022-07-06T13:16:42;9.37;;;4.00;;
249;SDS011;109;19.806;-70.704;2022-07-06T13:19:16;6.43;;;3.40;;
249;SDS011;109;19.806;-70.704;2022-07-06T13:21:56;10.10;;;3.47;;
249;SDS011;109;19.806;-70.704;2022-07-06T13:24:22;9.93;;;3.70;;
249;SDS011;109;19.806;-70.704;2022-07-06T13:27:02;16.70;;;3.77;;
249;SDS011;109;19.806;-70.704;2022-07-06T13:29:28;11.03;;;3.63;;
249;SDS011;109;19.806;-70.704;2022-07-06T13:32:08;11.23;;;4.13;;
249;SDS011;109;19.806;-70.704;2022-07-06T13:34:34;7.23;;;3.83;;
249;SDS011;109;19.806;-70.704;2022-07-06T13:37:14;11.53;;;3.90;;
249;SDS011;109;19.806;-70.704;2022-07-06T13:39:40;13.20;;;3.70;;
249;SDS011;109;19.806;-70.704;2022-07-06T13:42:07;11.87;;;3.77;;
249;SDS011;109;19.806;-70.704;2022-07-06T13:44:34;18.07;;;4.20;;
249;SDS011;109;19.806;-70.704;2022-07-06T13:47:01;12.97;;;4.07;;
249;SDS011;109;19.806;-70.704;2022-07-06T13:49:28;13.73;;;3.90;;
249;SDS011;109;19.806;-70.704;2022-07-06T13:51:54;12.33;;;4.90;;
249;SDS011;109;19.806;-70.704;2022-07-06T13:54:27;17.97;;;4.73;;
249;SDS011;109;19.806;-70.704;2022-07-06T13:56:54;10.10;;;4.27;;
249;SDS011;109;19.806;-70.704;2022-07-06T13:59:21;19.87;;;4.63;;
249;SDS011;109;19.806;-70.704;2022-07-06T14:01:47;26.23;;;5.80;;
249;SDS011;109;19.806;-70.704;2022-07-06T14:04:14;26.67;;;6.00;;
249;SDS011;109;19.806;-70.704;2022-07-06T14:06:40;25.87;;;5.07;;
249;SDS011;109;19.806;-70.704;2022-07-06T14:09:07;20.83;;;4.30;;
249;SDS011;109;19.806;-70.704;2022-07-06T14:11:33;29.17;;;5.63;;
249;SDS011;109;19.806;-70.704;2022-07-06T14:14:00;21.57;;;5.30;;
249;SDS011;109;19.806;-70.704;2022-07-06T14:16:26;21.57;;;5.70;;
249;SDS011;109;19.806;-70.704;2022-07-06T14:18:53;22.47;;;4.50;;
249;SDS011;109;19.806;-70.704;2022-07-06T14:21:19;37.53;;;5.50;;
249;SDS011;109;19.806;-70.704;2022-07-06T14:23:46;28.27;;;4.20;;
249;SDS011;109;19.806;-70.704;2022-07-06T14:26:14;26.80;;;4.43;;
249;SDS011;109;19.806;-70.704;2022-07-06T14:28:40;20.00;;;4.50;;
249;SDS011;109;19.806;-70.704;2022-07-06T14:31:07;35.43;;;4.73;;
249;SDS011;109;19.806;-70.704;2022-07-06T14:33:34;25.53;;;4.70;;
249;SDS011;109;19.806;-70.704;2022-07-06T14:36:00;20.10;;;4.50;;
249;SDS011;109;19.806;-70.704;2022-07-06T14:38:27;32.77;;;6.97;;
249;SDS011;109;19.806;-70.704;2022-07-06T14:40:53;22.90;;;5.47;;
249;SDS011;109;19.806;-70.704;2022-07-06T14:43:20;29.00;;;4.70;;
249;SDS011;109;19.806;-70.704;2022-07-06T14:45:46;18.33;;;4.20;;
249;SDS011;109;19.806;-70.704;2022-07-06T14:48:13;23.23;;;4.27;;
249;SDS011;109;19.806;-70.704;2022-07-06T14:50:39;24.70;;;5.17;;
249;SDS011;109;19.806;-70.704;2022-07-06T14:53:06;23.33;;;5.37;;
249;SDS011;109;19.806;-70.704;2022-07-06T14:55:33;21.50;;;4.53;;
249;SDS011;109;19.806;-70.704;2022-07-06T14:57:59;23.17;;;4.77;;
249;SDS011;109;19.806;-70.704;2022-07-06T15:00:26;29.90;;;5.00;;
249;SDS011;109;19.806;-70.704;2022-07-06T15:02:52;51.17;;;6.00;;
249;SDS011;109;19.806;-70.704;2022-07-06T15:05:19;35.60;;;5.00;;
249;SDS011;109;19.806;-70.704;2022-07-06T15:07:46;22.70;;;5.30;;
249;SDS011;109;19.806;-70.704;2022-07-06T15:10:13;31.03;;;5.10;;
249;SDS011;109;19.806;-70.704;2022-07-06T15:12:39;32.47;;;5.80;;
249;SDS011;109;19.806;-70.704;2022-07-06T15:15:06;15.57;;;4.53;;
249;SDS011;109;19.806;-70.704;2022-07-06T15:17:33;28.60;;;4.70;;
249;SDS011;109;19.806;-70.704;2022-07-06T15:19:59;35.53;;;5.17;;
249;SDS011;109;19.806;-70.704;2022-07-06T15:22:26;23.80;;;5.00;;
249;SDS011;109;19.806;-70.704;2022-07-06T15:24:53;18.50;;;4.83;;
249;SDS011;109;19.806;-70.704;2022-07-06T15:27:20;22.23;;;4.40;;
249;SDS011;109;19.806;-70.704;2022-07-06T15:29:46;26.83;;;5.03;;
249;SDS011;109;19.806;-70.704;2022-07-06T15:32:12;18.73;;;4.00;;
249;SDS011;109;19.806;-70.704;2022-07-06T15:34:39;21.57;;;3.67;;
249;SDS011;109;19.806;-70.704;2022-07-06T15:37:06;27.03;;;4.93;;
249;SDS011;109;19.806;-70.704;2022-07-06T15:39:32;16.90;;;4.10;;
249;SDS011;109;19.806;-70.704;2022-07-06T15:41:58;12.90;;;3.47;;
249;SDS011;109;19.806;-70.704;2022-07-06T15:44:25;11.80;;;3.50;;
249;SDS011;109;19.806;-70.704;2022-07-06T15:46:51;22.90;;;3.80;;
249;SDS011;109;19.806;-70.704;2022-07-06T15:49:18;18.50;;;5.37;;
249;SDS011;109;19.806;-70.704;2022-07-06T15:51:44;24.93;;;5.10;;
249;SDS011;109;19.806;-70.704;2022-07-06T15:54:11;20.50;;;3.97;;
249;SDS011;109;19.806;-70.704;2022-07-06T15:56:38;15.10;;;3.60;;